sensor_id;sensor_type;location;lat;lon;timestamp;P1;durP1;ratioP1;P2;durP2;ratioP2
77705;SDS011;66874;45.274;5.880;2023-12-04T00:02:19;29.77;;;11.40;;
77705;SDS011;66874;45.274;5.880;2023-12-04T00:04:44;24.45;;;9.85;;
77705;SDS011;66874;45.274;5.880;2023-12-04T00:07:10;18.70;;;8.55;;
77705;SDS011;66874;45.274;5.880;2023-12-04T00:09:35;17.15;;;8.20;;
77705;SDS011;66874;45.274;5.880;2023-12-04T00:12:00;19.98;;;8.80;;
77705;SDS011;66874;45.274;5.880;2023-12-04T00:14:26;21.50;;;8.80;;
77705;SDS011;66874;45.274;5.880;2023-12-04T00:16:51;18.67;;;8.13;;
77705;SDS011;66874;45.274;5.880;2023-12-04T00:19:16;12.65;;;5.95;;
77705;SDS011;66874;45.274;5.880;2023-12-04T00:21:42;14.07;;;6.05;;
77705;SDS011;66874;45.274;5.880;2023-12-04T00:24:07;19.80;;;7.23;;
77705;SDS011;66874;45.274;5.880;2023-12-04T00:26:32;17.63;;;7.57;;
77705;SDS011;66874;45.274;5.880;2023-12-04T00:28:58;17.33;;;8.00;;
77705;SDS011;66874;45.274;5.880;2023-12-04T00:31:23;35.50;;;11.25;;
77705;SDS011;66874;45.274;5.880;2023-12-04T00:33:48;35.78;;;11.52;;
77705;SDS011;66874;45.274;5.880;2023-12-04T00:36:14;21.03;;;8.93;;
77705;SDS011;66874;45.274;5.880;2023-12-04T00:38:39;25.07;;;9.43;;
77705;SDS011;66874;45.274;5.880;2023-12-04T00:41:05;37.85;;;12.60;;
77705;SDS011;66874;45.274;5.880;2023-12-04T00:43:30;36.17;;;11.40;;
77705;SDS011;66874;45.274;5.880;2023-12-04T00:45:56;29.80;;;10.90;;
77705;SDS011;66874;45.274;5.880;2023-12-04T00:48:21;83.80;;;20.00;;
77705;SDS011;66874;45.274;5.880;2023-12-04T00:50:46;65.35;;;18.13;;
77705;SDS011;66874;45.274;5.880;2023-12-04T00:53:12;74.80;;;18.98;;
77705;SDS011;66874;45.274;5.880;2023-12-04T00:55:37;32.20;;;12.50;;
77705;SDS011;66874;45.274;5.880;2023-12-04T00:58:02;42.97;;;12.60;;
77705;SDS011;66874;45.274;5.880;2023-12-04T01:00:28;107.83;;;21.97;;
77705;SDS011;66874;45.274;5.880;2023-12-04T01:02:53;68.90;;;17.58;;
77705;SDS011;66874;45.274;5.880;2023-12-04T01:05:19;38.88;;;11.80;;
77705;SDS011;66874;45.274;5.880;2023-12-04T01:07:44;20.23;;;7.60;;
77705;SDS011;66874;45.274;5.880;2023-12-04T01:10:10;18.60;;;6.50;;
77705;SDS011;66874;45.274;5.880;2023-12-04T01:12:35;20.37;;;8.30;;
77705;SDS011;66874;45.274;5.880;2023-12-04T01:15:01;18.83;;;7.68;;
77705;SDS011;66874;45.274;5.880;2023-12-04T01:17:27;20.52;;;7.38;;
77705;SDS011;66874;45.274;5.880;2023-12-04T01:19:52;15.27;;;7.57;;
77705;SDS011;66874;45.274;5.880;2023-12-04T01:22:18;18.40;;;8.05;;
77705;SDS011;66874;45.274;5.880;2023-12-04T01:24:43;21.48;;;8.45;;
77705;SDS011;66874;45.274;5.880;2023-12-04T01:27:08;17.25;;;7.80;;
77705;SDS011;66874;45.274;5.880;2023-12-04T01:29:34;19.80;;;8.95;;
77705;SDS011;66874;45.274;5.880;2023-12-04T01:31:59;15.93;;;7.37;;
77705;SDS011;66874;45.274;5.880;2023-12-04T01:34:25;15.55;;;6.25;;
77705;SDS011;66874;45.274;5.880;2023-12-04T01:36:50;14.23;;;6.80;;
77705;SDS011;66874;45.274;5.880;2023-12-04T01:39:16;13.73;;;5.70;;
77705;SDS011;66874;45.274;5.880;2023-12-04T01:41:41;15.52;;;6.25;;
77705;SDS011;66874;45.274;5.880;2023-12-04T01:44:06;15.73;;;6.78;;
77705;SDS011;66874;45.274;5.880;2023-12-04T01:46:32;15.45;;;7.05;;
77705;SDS011;66874;45.274;5.880;2023-12-04T01:48:58;12.15;;;5.75;;
77705;SDS011;66874;45.274;5.880;2023-12-04T01:51:24;14.63;;;5.88;;
77705;SDS011;66874;45.274;5.880;2023-12-04T01:53:51;15.32;;;6.93;;
77705;SDS011;66874;45.274;5.880;2023-12-04T01:56:17;14.50;;;6.45;;
77705;SDS011;66874;45.274;5.880;2023-12-04T01:58:44;11.65;;;5.72;;
77705;SDS011;66874;45.274;5.880;2023-12-04T02:01:10;11.98;;;5.03;;
77705;SDS011;66874;45.274;5.880;2023-12-04T02:03:36;10.00;;;4.47;;
77705;SDS011;66874;45.274;5.880;2023-12-04T02:06:02;9.75;;;4.25;;
77705;SDS011;66874;45.274;5.880;2023-12-04T02:08:29;11.77;;;5.43;;
77705;SDS011;66874;45.274;5.880;2023-12-04T02:10:57;9.75;;;5.13;;
77705;SDS011;66874;45.274;5.880;2023-12-04T02:13:23;8.90;;;4.70;;
77705;SDS011;66874;45.274;5.880;2023-12-04T02:15:49;11.20;;;4.70;;
77705;SDS011;66874;45.274;5.880;2023-12-04T02:18:18;9.65;;;4.97;;
77705;SDS011;66874;45.274;5.880;2023-12-04T02:20:44;10.18;;;5.10;;
77705;SDS011;66874;45.274;5.880;2023-12-04T02:23:09;10.23;;;5.63;;
77705;SDS011;66874;45.274;5.880;2023-12-04T02:25:35;17.15;;;8.45;;
77705;SDS011;66874;45.274;5.880;2023-12-04T02:28:01;16.05;;;7.00;;
77705;SDS011;66874;45.274;5.880;2023-12-04T02:30:29;15.32;;;7.03;;
77705;SDS011;66874;45.274;5.880;2023-12-04T02:32:56;20.02;;;8.43;;
77705;SDS011;66874;45.274;5.880;2023-12-04T02:35:24;15.52;;;6.30;;
77705;SDS011;66874;45.274;5.880;2023-12-04T02:37:53;11.10;;;5.25;;
77705;SDS011;66874;45.274;5.880;2023-12-04T02:40:19;11.25;;;5.28;;
77705;SDS011;66874;45.274;5.880;2023-12-04T02:42:44;7.45;;;4.03;;
77705;SDS011;66874;45.274;5.880;2023-12-04T02:45:10;10.80;;;5.35;;
77705;SDS011;66874;45.274;5.880;2023-12-04T02:47:36;9.43;;;4.90;;
77705;SDS011;66874;45.274;5.880;2023-12-04T02:50:01;10.05;;;4.38;;
77705;SDS011;66874;45.274;5.880;2023-12-04T02:52:27;7.82;;;4.00;;
77705;SDS011;66874;45.274;5.880;2023-12-04T02:54:52;9.90;;;4.43;;
77705;SDS011;66874;45.274;5.880;2023-12-04T02:57:17;7.93;;;4.40;;
77705;SDS011;66874;45.274;5.880;2023-12-04T02:59:43;10.90;;;4.82;;
77705;SDS011;66874;45.274;5.880;2023-12-04T03:02:08;12.43;;;4.10;;
77705;SDS011;66874;45.274;5.880;2023-12-04T03:04:34;8.60;;;4.07;;
77705;SDS011;66874;45.274;5.880;2023-12-04T03:06:59;10.30;;;4.60;;
77705;SDS011;66874;45.274;5.880;2023-12-04T03:09:25;10.13;;;4.55;;
77705;SDS011;66874;45.274;5.880;2023-12-04T03:11:50;8.55;;;4.28;;
77705;SDS011;66874;45.274;5.880;2023-12-04T03:14:16;9.68;;;5.15;;
77705;SDS011;66874;45.274;5.880;2023-12-04T03:16:41;9.27;;;4.72;;
77705;SDS011;66874;45.274;5.880;2023-12-04T03:19:06;7.53;;;4.32;;
77705;SDS011;66874;45.274;5.880;2023-12-04T03:21:32;12.73;;;4.80;;
77705;SDS011;66874;45.274;5.880;2023-12-04T03:23:57;10.40;;;4.63;;
77705;SDS011;66874;45.274;5.880;2023-12-04T03:26:23;8.68;;;4.75;;
77705;SDS011;66874;45.274;5.880;2023-12-04T03:28:48;11.63;;;4.50;;
77705;SDS011;66874;45.274;5.880;2023-12-04T03:31:13;12.63;;;4.07;;
77705;SDS011;66874;45.274;5.880;2023-12-04T03:33:39;8.82;;;4.20;;
77705;SDS011;66874;45.274;5.880;2023-12-04T03:36:04;11.65;;;4.75;;
77705;SDS011;66874;45.274;5.880;2023-12-04T03:38:30;8.48;;;4.40;;
77705;SDS011;66874;45.274;5.880;2023-12-04T03:40:56;9.38;;;4.25;;
77705;SDS011;66874;45.274;5.880;2023-12-04T03:43:21;9.23;;;4.65;;
77705;SDS011;66874;45.274;5.880;2023-12-04T03:45:46;8.13;;;3.85;;
77705;SDS011;66874;45.274;5.880;2023-12-04T03:48:12;11.45;;;4.68;;
77705;SDS011;66874;45.274;5.880;2023-12-04T03:50:37;8.32;;;3.95;;
77705;SDS011;66874;45.274;5.880;2023-12-04T03:53:02;9.63;;;4.22;;
77705;SDS011;66874;45.274;5.880;2023-12-04T03:55:28;10.10;;;4.75;;
77705;SDS011;66874;45.274;5.880;2023-12-04T03:57:54;8.77;;;4.20;;
77705;SDS011;66874;45.274;5.880;2023-12-04T04:00:20;11.82;;;4.68;;
77705;SDS011;66874;45.274;5.880;2023-12-04T04:02:45;10.00;;;4.68;;
77705;SDS011;66874;45.274;5.880;2023-12-04T04:05:11;6.50;;;3.63;;
77705;SDS011;66874;45.274;5.880;2023-12-04T04:07:36;10.20;;;4.78;;
77705;SDS011;66874;45.274;5.880;2023-12-04T04:10:02;8.73;;;4.65;;
77705;SDS011;66874;45.274;5.880;2023-12-04T04:12:29;11.00;;;4.35;;
77705;SDS011;66874;45.274;5.880;2023-12-04T04:14:55;9.02;;;4.15;;
77705;SDS011;66874;45.274;5.880;2023-12-04T04:17:20;9.52;;;4.43;;
77705;SDS011;66874;45.274;5.880;2023-12-04T04:19:45;6.20;;;3.55;;
77705;SDS011;66874;45.274;5.880;2023-12-04T04:22:11;9.23;;;4.30;;
77705;SDS011;66874;45.274;5.880;2023-12-04T04:24:36;9.27;;;4.65;;
77705;SDS011;66874;45.274;5.880;2023-12-04T04:27:01;12.88;;;4.75;;
77705;SDS011;66874;45.274;5.880;2023-12-04T04:29:27;7.97;;;4.05;;
77705;SDS011;66874;45.274;5.880;2023-12-04T04:31:52;9.15;;;4.68;;
77705;SDS011;66874;45.274;5.880;2023-12-04T04:34:19;10.88;;;4.03;;
77705;SDS011;66874;45.274;5.880;2023-12-04T04:36:45;9.25;;;4.53;;
77705;SDS011;66874;45.274;5.880;2023-12-04T04:39:11;6.90;;;3.35;;
77705;SDS011;66874;45.274;5.880;2023-12-04T04:44:04;8.48;;;3.55;;
77705;SDS011;66874;45.274;5.880;2023-12-04T04:46:29;9.40;;;4.10;;
77705;SDS011;66874;45.274;5.880;2023-12-04T04:48:55;10.45;;;4.53;;
77705;SDS011;66874;45.274;5.880;2023-12-04T04:51:20;8.02;;;4.40;;
77705;SDS011;66874;45.274;5.880;2023-12-04T04:53:46;11.57;;;4.00;;
77705;SDS011;66874;45.274;5.880;2023-12-04T04:56:12;7.93;;;3.40;;
77705;SDS011;66874;45.274;5.880;2023-12-04T04:58:37;7.43;;;4.65;;
77705;SDS011;66874;45.274;5.880;2023-12-04T05:01:03;7.00;;;3.67;;
77705;SDS011;66874;45.274;5.880;2023-12-04T05:03:29;8.32;;;3.78;;
77705;SDS011;66874;45.274;5.880;2023-12-04T05:05:54;7.43;;;3.70;;
77705;SDS011;66874;45.274;5.880;2023-12-04T05:08:20;11.07;;;4.43;;
77705;SDS011;66874;45.274;5.880;2023-12-04T05:10:45;8.50;;;3.75;;
77705;SDS011;66874;45.274;5.880;2023-12-04T05:13:10;8.48;;;3.42;;
77705;SDS011;66874;45.274;5.880;2023-12-04T05:15:37;10.52;;;4.18;;
77705;SDS011;66874;45.274;5.880;2023-12-04T05:18:02;8.75;;;3.50;;
77705;SDS011;66874;45.274;5.880;2023-12-04T05:20:28;8.18;;;3.97;;
77705;SDS011;66874;45.274;5.880;2023-12-04T05:22:53;7.93;;;3.83;;
77705;SDS011;66874;45.274;5.880;2023-12-04T05:25:18;6.70;;;2.92;;
77705;SDS011;66874;45.274;5.880;2023-12-04T05:27:44;6.38;;;3.38;;
77705;SDS011;66874;45.274;5.880;2023-12-04T05:30:10;5.00;;;3.17;;
77705;SDS011;66874;45.274;5.880;2023-12-04T05:32:36;7.70;;;3.35;;
77705;SDS011;66874;45.274;5.880;2023-12-04T05:35:01;11.88;;;4.25;;
77705;SDS011;66874;45.274;5.880;2023-12-04T05:37:27;9.15;;;3.75;;
77705;SDS011;66874;45.274;5.880;2023-12-04T05:39:53;7.63;;;3.50;;
77705;SDS011;66874;45.274;5.880;2023-12-04T05:42:18;8.23;;;3.92;;
77705;SDS011;66874;45.274;5.880;2023-12-04T05:44:43;9.55;;;3.20;;
77705;SDS011;66874;45.274;5.880;2023-12-04T05:47:09;7.28;;;4.43;;
77705;SDS011;66874;45.274;5.880;2023-12-04T05:49:34;9.35;;;4.38;;
77705;SDS011;66874;45.274;5.880;2023-12-04T05:52:00;9.63;;;4.35;;
77705;SDS011;66874;45.274;5.880;2023-12-04T05:54:25;14.45;;;4.93;;
77705;SDS011;66874;45.274;5.880;2023-12-04T05:56:50;11.55;;;4.68;;
77705;SDS011;66874;45.274;5.880;2023-12-04T05:59:16;12.45;;;5.55;;
77705;SDS011;66874;45.274;5.880;2023-12-04T06:01:41;8.30;;;4.90;;
77705;SDS011;66874;45.274;5.880;2023-12-04T06:04:06;12.45;;;4.60;;
77705;SDS011;66874;45.274;5.880;2023-12-04T06:06:32;10.85;;;4.65;;
77705;SDS011;66874;45.274;5.880;2023-12-04T06:08:57;9.98;;;3.83;;
77705;SDS011;66874;45.274;5.880;2023-12-04T06:11:22;8.20;;;4.07;;
77705;SDS011;66874;45.274;5.880;2023-12-04T06:13:48;12.18;;;3.75;;
77705;SDS011;66874;45.274;5.880;2023-12-04T06:16:13;10.32;;;4.47;;
77705;SDS011;66874;45.274;5.880;2023-12-04T06:18:39;7.97;;;3.92;;
77705;SDS011;66874;45.274;5.880;2023-12-04T06:21:04;12.77;;;4.20;;
77705;SDS011;66874;45.274;5.880;2023-12-04T06:23:30;7.38;;;3.60;;
77705;SDS011;66874;45.274;5.880;2023-12-04T06:25:55;8.27;;;4.70;;
77705;SDS011;66874;45.274;5.880;2023-12-04T06:28:21;8.73;;;3.58;;
77705;SDS011;66874;45.274;5.880;2023-12-04T06:30:47;7.47;;;3.13;;
77705;SDS011;66874;45.274;5.880;2023-12-04T06:33:12;6.07;;;2.47;;
77705;SDS011;66874;45.274;5.880;2023-12-04T06:35:39;6.93;;;3.22;;
77705;SDS011;66874;45.274;5.880;2023-12-04T06:38:06;6.65;;;2.90;;
77705;SDS011;66874;45.274;5.880;2023-12-04T06:40:33;8.38;;;4.15;;
77705;SDS011;66874;45.274;5.880;2023-12-04T06:42:59;6.83;;;4.50;;
77705;SDS011;66874;45.274;5.880;2023-12-04T06:45:25;12.10;;;3.90;;
77705;SDS011;66874;45.274;5.880;2023-12-04T06:47:51;14.57;;;8.57;;
77705;SDS011;66874;45.274;5.880;2023-12-04T06:50:18;14.93;;;9.02;;
77705;SDS011;66874;45.274;5.880;2023-12-04T06:52:44;16.80;;;9.60;;
77705;SDS011;66874;45.274;5.880;2023-12-04T06:55:09;6.80;;;4.05;;
77705;SDS011;66874;45.274;5.880;2023-12-04T06:57:34;7.88;;;4.70;;
77705;SDS011;66874;45.274;5.880;2023-12-04T07:00:00;9.07;;;4.60;;
77705;SDS011;66874;45.274;5.880;2023-12-04T07:02:25;5.78;;;3.45;;
77705;SDS011;66874;45.274;5.880;2023-12-04T07:04:51;6.47;;;3.50;;
77705;SDS011;66874;45.274;5.880;2023-12-04T07:07:16;8.90;;;3.80;;
77705;SDS011;66874;45.274;5.880;2023-12-04T07:09:42;5.53;;;3.08;;
77705;SDS011;66874;45.274;5.880;2023-12-04T07:12:07;7.80;;;3.75;;
77705;SDS011;66874;45.274;5.880;2023-12-04T07:14:32;10.48;;;4.13;;
77705;SDS011;66874;45.274;5.880;2023-12-04T07:16:58;5.95;;;3.20;;
77705;SDS011;66874;45.274;5.880;2023-12-04T07:19:24;26.55;;;8.13;;
77705;SDS011;66874;45.274;5.880;2023-12-04T07:21:50;7.30;;;4.00;;
77705;SDS011;66874;45.274;5.880;2023-12-04T07:24:15;7.80;;;4.55;;
77705;SDS011;66874;45.274;5.880;2023-12-04T07:26:41;9.07;;;4.28;;
77705;SDS011;66874;45.274;5.880;2023-12-04T07:29:06;9.10;;;4.25;;
77705;SDS011;66874;45.274;5.880;2023-12-04T07:31:32;7.95;;;4.03;;
77705;SDS011;66874;45.274;5.880;2023-12-04T07:33:57;7.43;;;3.88;;
77705;SDS011;66874;45.274;5.880;2023-12-04T07:36:25;10.50;;;4.60;;
77705;SDS011;66874;45.274;5.880;2023-12-04T07:38:50;5.85;;;3.00;;
77705;SDS011;66874;45.274;5.880;2023-12-04T07:41:17;7.90;;;4.07;;
77705;SDS011;66874;45.274;5.880;2023-12-04T07:43:43;8.98;;;4.43;;
77705;SDS011;66874;45.274;5.880;2023-12-04T07:46:09;7.70;;;3.85;;
77705;SDS011;66874;45.274;5.880;2023-12-04T07:48:35;8.38;;;5.45;;
77705;SDS011;66874;45.274;5.880;2023-12-04T07:51:01;10.15;;;5.20;;
77705;SDS011;66874;45.274;5.880;2023-12-04T07:53:26;15.02;;;6.60;;
77705;SDS011;66874;45.274;5.880;2023-12-04T07:55:51;12.80;;;5.68;;
77705;SDS011;66874;45.274;5.880;2023-12-04T07:58:17;11.18;;;5.43;;
77705;SDS011;66874;45.274;5.880;2023-12-04T08:00:46;12.40;;;6.03;;
77705;SDS011;66874;45.274;5.880;2023-12-04T08:03:11;8.77;;;5.55;;
77705;SDS011;66874;45.274;5.880;2023-12-04T08:05:37;12.07;;;6.53;;
77705;SDS011;66874;45.274;5.880;2023-12-04T08:08:02;12.32;;;6.28;;
77705;SDS011;66874;45.274;5.880;2023-12-04T08:10:28;11.57;;;6.60;;
77705;SDS011;66874;45.274;5.880;2023-12-04T08:12:53;9.32;;;5.18;;
77705;SDS011;66874;45.274;5.880;2023-12-04T08:15:18;7.93;;;4.03;;
77705;SDS011;66874;45.274;5.880;2023-12-04T08:17:44;13.95;;;6.55;;
77705;SDS011;66874;45.274;5.880;2023-12-04T08:20:09;15.23;;;6.68;;
77705;SDS011;66874;45.274;5.880;2023-12-04T08:26:22;27.85;;;10.77;;
77705;SDS011;66874;45.274;5.880;2023-12-04T08:39:28;12.15;;;6.35;;
77705;SDS011;66874;45.274;5.880;2023-12-04T08:45:23;14.43;;;6.32;;
77705;SDS011;66874;45.274;5.880;2023-12-04T08:54:32;10.32;;;4.68;;
77705;SDS011;66874;45.274;5.880;2023-12-04T08:56:58;11.48;;;5.68;;
77705;SDS011;66874;45.274;5.880;2023-12-04T08:59:23;17.25;;;7.50;;
77705;SDS011;66874;45.274;5.880;2023-12-04T09:01:48;12.88;;;5.20;;
77705;SDS011;66874;45.274;5.880;2023-12-04T09:04:14;18.83;;;8.07;;
77705;SDS011;66874;45.274;5.880;2023-12-04T09:06:39;9.02;;;4.68;;
77705;SDS011;66874;45.274;5.880;2023-12-04T09:09:04;10.77;;;4.10;;
77705;SDS011;66874;45.274;5.880;2023-12-04T09:11:30;11.02;;;5.10;;
77705;SDS011;66874;45.274;5.880;2023-12-04T09:13:55;12.77;;;7.07;;
77705;SDS011;66874;45.274;5.880;2023-12-04T09:16:21;13.32;;;4.18;;
77705;SDS011;66874;45.274;5.880;2023-12-04T09:18:46;8.45;;;4.65;;
77705;SDS011;66874;45.274;5.880;2023-12-04T09:21:11;13.55;;;6.30;;
77705;SDS011;66874;45.274;5.880;2023-12-04T09:23:37;15.32;;;6.63;;
77705;SDS011;66874;45.274;5.880;2023-12-04T09:26:03;16.80;;;7.43;;
77705;SDS011;66874;45.274;5.880;2023-12-04T09:28:28;15.13;;;6.55;;
77705;SDS011;66874;45.274;5.880;2023-12-04T09:30:54;16.52;;;8.10;;
77705;SDS011;66874;45.274;5.880;2023-12-04T09:33:19;18.15;;;8.77;;
77705;SDS011;66874;45.274;5.880;2023-12-04T09:35:45;16.20;;;6.72;;
77705;SDS011;66874;45.274;5.880;2023-12-04T09:38:10;20.42;;;10.15;;
77705;SDS011;66874;45.274;5.880;2023-12-04T09:40:35;19.35;;;9.50;;
77705;SDS011;66874;45.274;5.880;2023-12-04T09:43:01;34.20;;;16.55;;
77705;SDS011;66874;45.274;5.880;2023-12-04T09:45:27;43.80;;;20.52;;
77705;SDS011;66874;45.274;5.880;2023-12-04T09:47:55;23.05;;;12.88;;
77705;SDS011;66874;45.274;5.880;2023-12-04T09:50:21;25.55;;;13.68;;
77705;SDS011;66874;45.274;5.880;2023-12-04T09:52:50;25.75;;;13.35;;
77705;SDS011;66874;45.274;5.880;2023-12-04T09:55:17;19.75;;;10.65;;
77705;SDS011;66874;45.274;5.880;2023-12-04T09:57:57;15.82;;;9.38;;
77705;SDS011;66874;45.274;5.880;2023-12-04T10:00:23;12.80;;;5.60;;
77705;SDS011;66874;45.274;5.880;2023-12-04T10:02:50;25.95;;;12.43;;
77705;SDS011;66874;45.274;5.880;2023-12-04T10:05:15;20.73;;;9.90;;
77705;SDS011;66874;45.274;5.880;2023-12-04T10:07:41;23.75;;;13.02;;
77705;SDS011;66874;45.274;5.880;2023-12-04T10:10:06;18.67;;;7.93;;
77705;SDS011;66874;45.274;5.880;2023-12-04T10:12:33;12.18;;;6.22;;
77705;SDS011;66874;45.274;5.880;2023-12-04T10:15:06;14.15;;;7.75;;
77705;SDS011;66874;45.274;5.880;2023-12-04T10:17:34;7.63;;;4.43;;
77705;SDS011;66874;45.274;5.880;2023-12-04T10:20:15;8.32;;;4.85;;
77705;SDS011;66874;45.274;5.880;2023-12-04T10:22:54;5.88;;;3.40;;
77705;SDS011;66874;45.274;5.880;2023-12-04T10:25:21;10.95;;;6.00;;
77705;SDS011;66874;45.274;5.880;2023-12-04T10:27:49;9.18;;;5.30;;
77705;SDS011;66874;45.274;5.880;2023-12-04T10:30:36;9.35;;;4.70;;
77705;SDS011;66874;45.274;5.880;2023-12-04T10:33:01;8.48;;;4.72;;
77705;SDS011;66874;45.274;5.880;2023-12-04T10:35:30;12.65;;;5.35;;
77705;SDS011;66874;45.274;5.880;2023-12-04T10:37:57;11.45;;;5.38;;
77705;SDS011;66874;45.274;5.880;2023-12-04T10:40:23;8.65;;;4.50;;
77705;SDS011;66874;45.274;5.880;2023-12-04T10:42:57;11.85;;;4.47;;
77705;SDS011;66874;45.274;5.880;2023-12-04T10:45:40;16.38;;;4.57;;
77705;SDS011;66874;45.274;5.880;2023-12-04T10:48:07;14.30;;;7.70;;
77705;SDS011;66874;45.274;5.880;2023-12-04T10:50:35;10.98;;;5.95;;
77705;SDS011;66874;45.274;5.880;2023-12-04T10:53:05;14.45;;;6.03;;
77705;SDS011;66874;45.274;5.880;2023-12-04T10:55:32;11.57;;;5.65;;
77705;SDS011;66874;45.274;5.880;2023-12-04T10:58:02;17.73;;;6.35;;
77705;SDS011;66874;45.274;5.880;2023-12-04T11:00:30;11.82;;;5.97;;
77705;SDS011;66874;45.274;5.880;2023-12-04T11:02:59;16.30;;;8.10;;
77705;SDS011;66874;45.274;5.880;2023-12-04T11:05:29;25.48;;;11.60;;
77705;SDS011;66874;45.274;5.880;2023-12-04T11:07:59;25.30;;;12.45;;
77705;SDS011;66874;45.274;5.880;2023-12-04T11:12:56;18.02;;;9.13;;
77705;SDS011;66874;45.274;5.880;2023-12-04T11:15:27;14.13;;;7.75;;
77705;SDS011;66874;45.274;5.880;2023-12-04T11:17:56;12.20;;;6.53;;
77705;SDS011;66874;45.274;5.880;2023-12-04T11:20:24;12.82;;;5.45;;
77705;SDS011;66874;45.274;5.880;2023-12-04T11:22:54;14.15;;;5.45;;
77705;SDS011;66874;45.274;5.880;2023-12-04T11:25:20;11.68;;;5.80;;
77705;SDS011;66874;45.274;5.880;2023-12-04T11:27:49;9.80;;;6.50;;
77705;SDS011;66874;45.274;5.880;2023-12-04T11:30:16;12.85;;;7.60;;
77705;SDS011;66874;45.274;5.880;2023-12-04T11:32:43;10.90;;;6.20;;
77705;SDS011;66874;45.274;5.880;2023-12-04T11:35:14;15.55;;;7.00;;
77705;SDS011;66874;45.274;5.880;2023-12-04T11:37:40;11.23;;;6.30;;
77705;SDS011;66874;45.274;5.880;2023-12-04T11:40:08;16.13;;;6.80;;
77705;SDS011;66874;45.274;5.880;2023-12-04T11:42:36;10.50;;;5.40;;
77705;SDS011;66874;45.274;5.880;2023-12-04T11:47:30;10.90;;;6.13;;
77705;SDS011;66874;45.274;5.880;2023-12-04T11:49:57;9.30;;;5.07;;
77705;SDS011;66874;45.274;5.880;2023-12-04T11:52:32;10.13;;;5.72;;
77705;SDS011;66874;45.274;5.880;2023-12-04T11:57:37;12.02;;;6.03;;
77705;SDS011;66874;45.274;5.880;2023-12-04T12:03:00;14.63;;;6.38;;
77705;SDS011;66874;45.274;5.880;2023-12-04T12:05:27;11.43;;;7.10;;
77705;SDS011;66874;45.274;5.880;2023-12-04T12:07:54;13.02;;;8.60;;
77705;SDS011;66874;45.274;5.880;2023-12-04T12:10:20;13.80;;;6.43;;
77705;SDS011;66874;45.274;5.880;2023-12-04T12:12:46;15.73;;;7.28;;
77705;SDS011;66874;45.274;5.880;2023-12-04T12:15:12;13.32;;;7.18;;
77705;SDS011;66874;45.274;5.880;2023-12-04T12:17:38;17.48;;;9.65;;
77705;SDS011;66874;45.274;5.880;2023-12-04T12:20:08;26.10;;;13.32;;
77705;SDS011;66874;45.274;5.880;2023-12-04T12:22:36;22.10;;;11.90;;
77705;SDS011;66874;45.274;5.880;2023-12-04T12:25:06;18.25;;;8.05;;
77705;SDS011;66874;45.274;5.880;2023-12-04T12:27:33;24.10;;;10.57;;
77705;SDS011;66874;45.274;5.880;2023-12-04T12:29:59;20.13;;;9.27;;
77705;SDS011;66874;45.274;5.880;2023-12-04T12:32:25;22.40;;;10.82;;
77705;SDS011;66874;45.274;5.880;2023-12-04T12:34:52;17.27;;;8.95;;
77705;SDS011;66874;45.274;5.880;2023-12-04T12:37:17;18.83;;;10.95;;
77705;SDS011;66874;45.274;5.880;2023-12-04T12:39:43;28.42;;;15.90;;
77705;SDS011;66874;45.274;5.880;2023-12-04T12:42:09;19.95;;;11.18;;
77705;SDS011;66874;45.274;5.880;2023-12-04T12:44:40;18.48;;;9.20;;
77705;SDS011;66874;45.274;5.880;2023-12-04T12:47:07;15.57;;;8.65;;
77705;SDS011;66874;45.274;5.880;2023-12-04T12:49:33;27.02;;;12.80;;
77705;SDS011;66874;45.274;5.880;2023-12-04T12:54:26;22.55;;;11.13;;
77705;SDS011;66874;45.274;5.880;2023-12-04T12:56:51;25.92;;;11.95;;
77705;SDS011;66874;45.274;5.880;2023-12-04T12:59:16;25.35;;;12.43;;
77705;SDS011;66874;45.274;5.880;2023-12-04T13:01:48;25.52;;;12.00;;
77705;SDS011;66874;45.274;5.880;2023-12-04T13:04:13;26.52;;;12.75;;
77705;SDS011;66874;45.274;5.880;2023-12-04T13:06:40;18.27;;;10.55;;
77705;SDS011;66874;45.274;5.880;2023-12-04T13:09:06;20.98;;;9.48;;
77705;SDS011;66874;45.274;5.880;2023-12-04T13:11:31;14.80;;;7.57;;
77705;SDS011;66874;45.274;5.880;2023-12-04T13:13:58;17.80;;;8.53;;
77705;SDS011;66874;45.274;5.880;2023-12-04T13:16:24;11.18;;;6.57;;
77705;SDS011;66874;45.274;5.880;2023-12-04T13:18:49;12.75;;;7.40;;
77705;SDS011;66874;45.274;5.880;2023-12-04T13:21:14;14.80;;;6.82;;
77705;SDS011;66874;45.274;5.880;2023-12-04T13:23:40;13.05;;;6.32;;
77705;SDS011;66874;45.274;5.880;2023-12-04T13:26:07;13.35;;;6.28;;
77705;SDS011;66874;45.274;5.880;2023-12-04T13:28:35;11.23;;;5.97;;
77705;SDS011;66874;45.274;5.880;2023-12-04T13:31:05;9.43;;;5.93;;
77705;SDS011;66874;45.274;5.880;2023-12-04T13:33:31;11.77;;;6.60;;
77705;SDS011;66874;45.274;5.880;2023-12-04T13:35:57;11.60;;;6.57;;
77705;SDS011;66874;45.274;5.880;2023-12-04T13:38:22;14.07;;;6.40;;
77705;SDS011;66874;45.274;5.880;2023-12-04T13:40:48;24.60;;;10.40;;
77705;SDS011;66874;45.274;5.880;2023-12-04T13:43:25;29.53;;;11.60;;
77705;SDS011;66874;45.274;5.880;2023-12-04T13:46:12;20.45;;;9.98;;
77705;SDS011;66874;45.274;5.880;2023-12-04T13:48:37;21.75;;;9.60;;
77705;SDS011;66874;45.274;5.880;2023-12-04T13:51:06;20.45;;;10.93;;
77705;SDS011;66874;45.274;5.880;2023-12-04T13:53:35;45.50;;;20.27;;
77705;SDS011;66874;45.274;5.880;2023-12-04T13:56:03;33.45;;;14.48;;
77705;SDS011;66874;45.274;5.880;2023-12-04T13:58:50;24.02;;;10.30;;
77705;SDS011;66874;45.274;5.880;2023-12-04T14:01:23;13.23;;;7.70;;
77705;SDS011;66874;45.274;5.880;2023-12-04T14:03:51;13.13;;;6.68;;
77705;SDS011;66874;45.274;5.880;2023-12-04T14:06:18;9.18;;;5.10;;
77705;SDS011;66874;45.274;5.880;2023-12-04T14:08:43;9.93;;;5.75;;
77705;SDS011;66874;45.274;5.880;2023-12-04T14:11:09;12.40;;;5.88;;
77705;SDS011;66874;45.274;5.880;2023-12-04T14:13:36;11.23;;;5.93;;
77705;SDS011;66874;45.274;5.880;2023-12-04T14:16:01;11.60;;;6.93;;
77705;SDS011;66874;45.274;5.880;2023-12-04T14:18:27;11.98;;;6.43;;
77705;SDS011;66874;45.274;5.880;2023-12-04T14:20:55;19.17;;;8.00;;
77705;SDS011;66874;45.274;5.880;2023-12-04T14:23:20;16.83;;;8.60;;
77705;SDS011;66874;45.274;5.880;2023-12-04T14:25:46;19.90;;;9.30;;
77705;SDS011;66874;45.274;5.880;2023-12-04T14:28:12;27.10;;;12.00;;
77705;SDS011;66874;45.274;5.880;2023-12-04T14:30:37;35.88;;;15.68;;
77705;SDS011;66874;45.274;5.880;2023-12-04T14:33:02;27.45;;;14.20;;
77705;SDS011;66874;45.274;5.880;2023-12-04T14:35:28;34.65;;;14.75;;
77705;SDS011;66874;45.274;5.880;2023-12-04T14:37:53;28.98;;;15.18;;
77705;SDS011;66874;45.274;5.880;2023-12-04T14:40:19;29.13;;;12.25;;
77705;SDS011;66874;45.274;5.880;2023-12-04T14:42:45;28.67;;;14.57;;
77705;SDS011;66874;45.274;5.880;2023-12-04T14:45:11;26.42;;;14.13;;
77705;SDS011;66874;45.274;5.880;2023-12-04T14:47:41;29.38;;;16.33;;
77705;SDS011;66874;45.274;5.880;2023-12-04T14:50:08;35.83;;;18.55;;
77705;SDS011;66874;45.274;5.880;2023-12-04T14:52:35;30.65;;;13.88;;
77705;SDS011;66874;45.274;5.880;2023-12-04T14:55:03;27.23;;;13.93;;
77705;SDS011;66874;45.274;5.880;2023-12-04T14:57:35;25.52;;;14.13;;
77705;SDS011;66874;45.274;5.880;2023-12-04T15:00:22;25.13;;;12.77;;
77705;SDS011;66874;45.274;5.880;2023-12-04T15:02:59;16.67;;;9.70;;
77705;SDS011;66874;45.274;5.880;2023-12-04T15:05:47;19.80;;;10.82;;
77705;SDS011;66874;45.274;5.880;2023-12-04T15:08:27;19.55;;;10.10;;
77705;SDS011;66874;45.274;5.880;2023-12-04T15:10:58;18.08;;;11.02;;
77705;SDS011;66874;45.274;5.880;2023-12-04T15:13:27;19.00;;;9.55;;